createdAt,value
2018-12-25T00:01:56.351Z,51.50
2018-12-25T00:04:59.973Z,48.60
2018-12-25T00:08:04.827Z,42.33
2018-12-25T00:11:08.774Z,43.50
2018-12-25T00:14:12.516Z,43.67
2018-12-25T00:17:16.543Z,36.67
2018-12-25T00:20:20.452Z,39.00
2018-12-25T00:23:24.770Z,37.53
2018-12-25T00:26:28.976Z,35.93
2018-12-25T00:29:32.663Z,34.27
2018-12-25T00:32:36.307Z,37.07
2018-12-25T00:35:59.190Z,32.20
2018-12-25T00:42:13.890Z,26.20
2018-12-25T00:45:18.450Z,24.30
2018-12-25T00:48:23.328Z,25.53
2018-12-25T00:51:27.300Z,29.50
2018-12-25T00:54:50.426Z,16.00
2018-12-25T00:57:54.194Z,16.57
2018-12-25T01:00:57.935Z,16.40
2018-12-25T01:04:01.928Z,18.03
2018-12-25T01:07:05.926Z,15.23
2018-12-25T01:10:09.920Z,16.87
2018-12-25T01:13:13.968Z,15.47
2018-12-25T01:16:17.991Z,13.47
2018-12-25T01:19:40.863Z,16.47
2018-12-25T01:22:44.798Z,12.23
2018-12-25T01:25:48.781Z,11.10
2018-12-25T01:32:06.933Z,10.60
2018-12-25T01:38:19.867Z,11.30
2018-12-25T01:41:24.088Z,10.30
2018-12-25T01:44:28.835Z,10.67
2018-12-25T01:51:03.165Z,9.03
2018-12-25T01:54:06.846Z,10.07
2018-12-25T01:57:10.847Z,9.93
2018-12-25T02:00:14.823Z,8.10
2018-12-25T02:03:18.741Z,11.10
2018-12-25T02:06:22.733Z,10.13
2018-12-25T02:09:26.728Z,8.17
2018-12-25T02:12:31.115Z,7.00
2018-12-25T02:15:35.030Z,10.27
2018-12-25T02:18:38.706Z,8.33
2018-12-25T02:21:42.918Z,7.20
2018-12-25T02:27:55.923Z,8.00
2018-12-25T02:31:00.239Z,5.37
2018-12-25T02:34:04.100Z,7.40
2018-12-25T02:37:08.312Z,7.27
2018-12-25T02:40:12.224Z,6.63
2018-12-25T02:43:15.825Z,5.03
2018-12-25T02:46:39.042Z,5.23
2018-12-25T02:50:02.176Z,5.83
2018-12-25T02:53:06.100Z,4.43
2018-12-25T02:56:10.064Z,3.93
2018-12-25T02:59:13.673Z,3.97
2018-12-25T03:02:18.046Z,4.17
2018-12-25T03:05:22.317Z,5.80
2018-12-25T03:08:26.246Z,4.87
2018-12-25T03:11:30.544Z,4.90
2018-12-25T03:14:35.102Z,3.60
2018-12-25T03:17:38.739Z,4.57
2018-12-25T03:21:01.825Z,4.43
2018-12-25T03:24:05.765Z,5.03
2018-12-25T03:27:09.477Z,3.30
2018-12-25T03:30:13.254Z,2.97
2018-12-25T03:33:17.244Z,5.10
2018-12-25T03:36:21.550Z,3.43
2018-12-25T03:39:25.635Z,4.73
2018-12-25T03:42:29.301Z,2.60
2018-12-25T03:45:33.653Z,2.53
2018-12-25T03:48:37.984Z,3.90
2018-12-25T03:52:01.316Z,2.63
2018-12-25T03:55:05.364Z,5.10
2018-12-25T03:58:08.981Z,5.80
2018-12-25T04:01:12.719Z,2.20
2018-12-25T04:04:16.950Z,4.57
2018-12-25T04:07:40.089Z,4.23
2018-12-25T04:10:43.698Z,4.50
2018-12-25T04:13:47.369Z,5.43
2018-12-25T04:16:51.250Z,2.53
2018-12-25T04:19:55.261Z,3.00
2018-12-25T04:22:59.540Z,3.73
2018-12-25T04:26:22.393Z,3.40
2018-12-25T04:29:26.031Z,2.77
2018-12-25T04:32:30.271Z,6.57
2018-12-25T04:35:34.255Z,4.63
2018-12-25T04:38:37.890Z,4.97
2018-12-25T04:41:41.844Z,11.47
2018-12-25T04:44:45.973Z,7.67
2018-12-25T04:48:08.826Z,9.17
2018-12-25T04:51:12.436Z,9.13
2018-12-25T04:54:16.259Z,4.17
2018-12-25T04:57:19.954Z,4.77
2018-12-25T05:00:23.923Z,2.50
2018-12-25T05:03:27.629Z,3.63
2018-12-25T05:06:31.312Z,2.73
2018-12-25T05:09:34.962Z,3.67
2018-12-25T05:12:38.990Z,2.37
2018-12-25T05:15:42.607Z,5.30
2018-12-25T05:18:46.879Z,5.30
2018-12-25T05:21:50.477Z,2.87
2018-12-25T05:24:54.099Z,2.60
2018-12-25T05:27:58.048Z,8.90
2018-12-25T05:31:02.332Z,5.17
2018-12-25T05:34:06.045Z,3.13
2018-12-25T05:37:10.433Z,4.87
2018-12-25T05:40:14.539Z,2.20
2018-12-25T05:43:18.732Z,4.67
2018-12-25T05:46:41.327Z,5.77
2018-12-25T05:49:45.663Z,2.67
2018-12-25T05:52:49.282Z,2.13
2018-12-25T05:55:52.943Z,8.57
2018-12-25T05:58:57.374Z,5.07
2018-12-25T06:02:01.019Z,5.10
2018-12-25T06:05:04.660Z,8.17
2018-12-25T06:08:08.323Z,3.10
2018-12-25T06:14:21.720Z,2.83
2018-12-25T06:17:25.340Z,2.43
2018-12-25T06:20:29.313Z,1.60
2018-12-25T06:23:33.299Z,5.90
2018-12-25T06:26:56.168Z,6.90
2018-12-25T06:30:00.677Z,3.93
2018-12-25T06:33:04.272Z,3.47
2018-12-25T06:36:08.451Z,3.93
2018-12-25T06:39:12.416Z,4.67
2018-12-25T06:42:35.548Z,5.37
2018-12-25T06:45:39.736Z,8.57
2018-12-25T06:49:02.821Z,10.20
2018-12-25T06:52:06.790Z,93.17
2018-12-25T06:55:10.770Z,61.17
2018-12-25T06:58:14.816Z,58.10
2018-12-25T07:01:19.068Z,57.33
2018-12-25T07:04:22.944Z,50.40
2018-12-25T07:07:26.683Z,42.73
2018-12-25T07:10:30.792Z,39.57
2018-12-25T07:13:34.414Z,36.87
2018-12-25T07:16:38.643Z,35.60
2018-12-25T07:22:49.289Z,26.70
2018-12-25T07:25:53.189Z,25.67
2018-12-25T07:28:57.289Z,25.30
2018-12-25T07:32:01.505Z,20.53
2018-12-25T07:35:05.577Z,20.07
2018-12-25T07:38:09.291Z,17.97
2018-12-25T07:41:13.036Z,17.13
2018-12-25T07:44:16.943Z,15.17
2018-12-25T07:47:21.053Z,14.13
2018-12-25T07:50:25.454Z,14.77
2018-12-25T07:53:29.754Z,15.47
2018-12-25T07:56:33.914Z,11.67
2018-12-25T07:59:37.506Z,10.63
2018-12-25T08:02:41.128Z,10.47
2018-12-25T08:05:45.334Z,10.07
2018-12-25T08:08:49.728Z,12.80
2018-12-25T08:12:13.144Z,13.97
2018-12-25T08:15:17.066Z,9.70
2018-12-25T08:18:20.705Z,9.37
2018-12-25T08:21:29.182Z,7.60
2018-12-25T08:24:30.757Z,6.80
2018-12-25T08:27:34.686Z,7.23
2018-12-25T08:30:38.378Z,9.00
2018-12-25T08:33:42.449Z,10.30
2018-12-25T08:37:05.302Z,6.20
2018-12-25T08:40:09.299Z,9.20
2018-12-25T08:43:12.950Z,6.50
2018-12-25T08:46:16.970Z,10.83
2018-12-25T08:49:20.583Z,8.20
2018-12-25T08:52:24.220Z,75.63
2018-12-25T08:55:28.015Z,205.10
2018-12-25T08:58:51.177Z,125.53
2018-12-25T09:02:13.893Z,75.60
2018-12-25T09:05:18.313Z,57.30
2018-12-25T09:08:22.253Z,42.13
2018-12-25T09:11:26.604Z,48.77
2018-12-25T09:14:31.264Z,79.63
2018-12-25T09:17:35.218Z,59.43
2018-12-25T09:20:39.479Z,52.43
2018-12-25T09:23:43.306Z,47.20
2018-12-25T09:26:47.308Z,43.80
2018-12-25T09:29:51.342Z,39.17
2018-12-25T09:32:55.078Z,36.47
2018-12-25T09:35:59.095Z,32.43
2018-12-25T09:42:33.478Z,31.73
2018-12-25T09:45:37.578Z,25.57
2018-12-25T09:48:41.590Z,24.03
2018-12-25T09:51:45.556Z,21.50
2018-12-25T09:54:49.277Z,54.87
2018-12-25T09:57:53.249Z,153.03
2018-12-25T10:00:57.229Z,116.20
2018-12-25T10:04:01.557Z,94.03
2018-12-25T10:10:30.926Z,80.93
2018-12-25T10:13:35.018Z,67.40
2018-12-25T10:16:57.986Z,63.20
2018-12-25T10:20:02.431Z,55.40
2018-12-25T10:23:06.836Z,46.53
2018-12-25T10:26:29.923Z,43.10
2018-12-25T10:29:33.599Z,36.30
2018-12-25T10:32:37.304Z,35.33
2018-12-25T10:36:00.656Z,33.23
2018-12-25T10:42:34.800Z,28.07
2018-12-25T10:45:38.928Z,21.23
2018-12-25T10:48:42.757Z,20.87
2018-12-25T10:51:47.589Z,22.33
2018-12-25T10:54:52.382Z,19.43
2018-12-25T10:58:15.668Z,15.67
2018-12-25T11:01:23.434Z,16.93
2018-12-25T11:04:27.838Z,16.23
2018-12-25T11:07:31.820Z,14.97
2018-12-25T11:10:35.778Z,15.73
2018-12-25T11:13:59.017Z,11.87
2018-12-25T11:17:22.511Z,13.60
2018-12-25T11:23:36.218Z,8.47
2018-12-25T11:30:09.510Z,10.13
2018-12-25T11:33:33.102Z,12.80
2018-12-25T11:36:37.579Z,11.83
2018-12-25T11:39:42.927Z,29.63
2018-12-25T11:42:48.530Z,25.63
2018-12-25T11:46:11.933Z,18.53
2018-12-25T11:49:16.618Z,15.40
2018-12-25T11:52:40.692Z,16.57
2018-12-25T11:55:45.260Z,15.77
2018-12-25T11:59:08.672Z,13.03
2018-12-25T12:02:52.984Z,12.00
2018-12-25T12:05:57.490Z,14.40
2018-12-25T12:09:02.253Z,12.87
2018-12-25T12:12:07.767Z,13.63
2018-12-25T12:15:11.880Z,30.87
2018-12-25T12:18:15.850Z,38.37
2018-12-25T12:21:19.463Z,29.30
2018-12-25T12:24:23.799Z,26.57
2018-12-25T12:27:46.905Z,23.30
2018-12-25T12:30:50.919Z,25.03
2018-12-25T12:33:55.040Z,24.13
2018-12-25T12:36:58.749Z,20.80
2018-12-25T12:40:21.892Z,20.67
2018-12-25T12:46:48.772Z,20.83
2018-12-25T12:53:15.393Z,16.17
2018-12-25T12:56:19.377Z,17.83
2018-12-25T12:59:42.511Z,14.97
2018-12-25T13:02:46.214Z,18.17
2018-12-25T13:05:50.173Z,13.70
2018-12-25T13:08:54.070Z,14.23
2018-12-25T13:12:17.177Z,14.60
2018-12-25T13:15:40.025Z,14.13
2018-12-25T13:18:43.785Z,14.83
2018-12-25T13:21:47.783Z,11.67
2018-12-25T13:25:10.972Z,11.53
2018-12-25T13:28:14.962Z,11.17
2018-12-25T13:31:18.603Z,11.67
2018-12-25T13:34:22.242Z,8.40
2018-12-25T13:37:25.877Z,9.27
2018-12-25T13:40:29.817Z,10.67
2018-12-25T13:43:33.837Z,9.53
2018-12-25T13:46:56.705Z,9.87
2018-12-25T13:50:00.390Z,9.90
2018-12-25T13:56:14.077Z,8.80
2018-12-25T13:59:18.023Z,7.73
2018-12-25T14:02:22.518Z,7.17
2018-12-25T14:05:26.224Z,6.70
2018-12-25T14:08:30.539Z,7.47
2018-12-25T14:11:34.537Z,6.87
2018-12-25T14:14:38.785Z,7.27
2018-12-25T14:17:42.445Z,6.63
2018-12-25T14:20:46.046Z,6.37
2018-12-25T14:23:50.042Z,7.17
2018-12-25T14:26:53.664Z,6.63
2018-12-25T14:30:16.551Z,5.43
2018-12-25T14:33:20.514Z,7.00
2018-12-25T14:39:47.439Z,4.53
2018-12-25T14:43:10.575Z,5.67
2018-12-25T14:46:14.283Z,5.30
2018-12-25T14:49:18.327Z,4.60
2018-12-25T14:52:23.583Z,5.67
2018-12-25T14:55:27.677Z,5.90
2018-12-25T14:58:31.879Z,4.80
2018-12-25T15:01:35.882Z,4.90
2018-12-25T15:04:58.532Z,4.40
2018-12-25T15:08:02.212Z,5.13
2018-12-25T15:11:06.500Z,5.47
2018-12-25T15:14:10.602Z,5.57
2018-12-25T15:17:14.572Z,4.97
2018-12-25T15:20:18.479Z,4.80
2018-12-25T15:23:28.175Z,4.57
2018-12-25T15:26:28.277Z,5.27
2018-12-25T15:33:04.513Z,4.53
2018-12-25T15:36:08.509Z,4.00
2018-12-25T15:39:14.327Z,3.67
2018-12-25T15:42:18.287Z,3.53
2018-12-25T15:45:22.908Z,3.67
2018-12-25T15:48:27.280Z,4.00
2018-12-25T15:51:31.798Z,4.47
2018-12-25T15:54:36.099Z,2.93
2018-12-25T15:57:39.790Z,3.30
2018-12-25T16:00:43.478Z,3.60
2018-12-25T16:03:47.754Z,2.60
2018-12-25T16:06:51.663Z,3.53
2018-12-25T16:09:55.733Z,3.37
2018-12-25T16:12:59.350Z,3.87
2018-12-25T16:16:22.555Z,3.80
2018-12-25T16:19:26.249Z,3.87
2018-12-25T16:22:29.967Z,5.47
2018-12-25T16:25:34.053Z,13.37
2018-12-25T16:28:38.069Z,16.80
2018-12-25T16:32:01.228Z,15.97
2018-12-25T16:35:05.178Z,17.40
2018-12-25T16:38:09.372Z,18.07
2018-12-25T16:41:33.033Z,13.63
2018-12-25T16:44:38.053Z,13.17
2018-12-25T16:47:44.024Z,13.23
2018-12-25T16:54:16.858Z,21.13
2018-12-25T16:57:20.845Z,32.60
2018-12-25T17:00:24.762Z,23.53
2018-12-25T17:03:28.785Z,16.13
2018-12-25T17:06:52.276Z,16.00
2018-12-25T17:09:56.286Z,11.33
2018-12-25T17:13:00.236Z,8.20
2018-12-25T17:16:03.952Z,7.17
2018-12-25T17:19:07.903Z,9.37
2018-12-25T17:22:12.735Z,7.97
2018-12-25T17:25:35.602Z,5.63
2018-12-25T17:28:42.041Z,8.83
2018-12-25T17:31:46.509Z,7.57
2018-12-25T17:34:50.287Z,5.63
2018-12-25T17:37:54.255Z,6.90
2018-12-25T17:40:58.189Z,4.37
2018-12-25T17:44:01.989Z,4.93
2018-12-25T17:47:05.710Z,6.97
2018-12-25T17:50:28.827Z,8.43
2018-12-25T17:53:32.965Z,5.20
2018-12-25T17:56:37.901Z,5.60
2018-12-25T17:59:42.971Z,7.07
2018-12-25T18:03:06.151Z,4.40
2018-12-25T18:06:09.786Z,5.97
2018-12-25T18:09:13.402Z,7.27
2018-12-25T18:12:17.489Z,5.33
2018-12-25T18:15:21.202Z,4.03
2018-12-25T18:18:25.107Z,9.07
2018-12-25T18:24:51.953Z,6.33
2018-12-25T18:27:56.159Z,7.10
2018-12-25T18:31:00.404Z,5.23
2018-12-25T18:34:04.705Z,4.10
2018-12-25T18:37:08.960Z,5.53
2018-12-25T18:40:12.846Z,6.67
2018-12-25T18:43:20.039Z,38.03
2018-12-25T18:46:24.159Z,153.43
2018-12-25T18:49:50.816Z,81.50
2018-12-25T18:56:25.339Z,48.33
2018-12-25T18:59:30.036Z,39.87
2018-12-25T19:03:18.494Z,28.60
2018-12-25T19:06:24.916Z,28.37
2018-12-25T19:09:30.836Z,26.83
2018-12-25T19:12:34.646Z,21.23
2018-12-25T19:15:38.997Z,17.03
2018-12-25T19:18:43.688Z,16.00
2018-12-25T19:21:48.556Z,13.63
2018-12-25T19:24:53.248Z,17.00
2018-12-25T19:27:57.840Z,14.37
2018-12-25T19:31:01.887Z,10.10
2018-12-25T19:34:24.847Z,11.87
2018-12-25T19:37:28.623Z,9.30
2018-12-25T19:40:32.954Z,6.13
2018-12-25T19:43:56.179Z,8.07
2018-12-25T19:47:00.870Z,9.60
2018-12-25T19:50:05.286Z,7.10
2018-12-25T19:53:09.284Z,7.30
2018-12-25T19:56:13.790Z,3.93
2018-12-25T19:59:36.827Z,70.93
2018-12-25T20:03:04.732Z,44.57
2018-12-25T20:06:46.978Z,26.00
2018-12-25T20:10:29.170Z,17.30
2018-12-25T20:14:11.986Z,14.50
2018-12-25T20:17:54.369Z,13.77
2018-12-25T20:21:36.649Z,12.00
2018-12-25T20:25:18.831Z,13.27
2018-12-25T20:28:49.946Z,11.53
2018-12-25T20:32:32.078Z,8.77
2018-12-25T20:36:16.314Z,7.97
2018-12-25T20:39:58.682Z,7.33
2018-12-25T20:43:40.868Z,6.73
2018-12-25T20:47:23.195Z,7.83
2018-12-25T20:51:06.874Z,5.87
2018-12-25T20:58:20.828Z,6.27
2018-12-25T21:02:11.476Z,6.30
2018-12-25T21:05:54.074Z,3.63
2018-12-25T21:09:36.523Z,5.17
2018-12-25T21:13:18.915Z,6.87
2018-12-25T21:17:00.423Z,4.10
2018-12-25T21:20:42.814Z,5.90
2018-12-25T21:24:25.203Z,5.20
2018-12-25T21:27:47.510Z,4.57
2018-12-25T21:30:51.319Z,4.33
2018-12-25T21:33:55.228Z,4.43
2018-12-25T21:36:59.448Z,3.93
2018-12-25T21:40:04.667Z,3.73
2018-12-25T21:43:09.117Z,5.17
2018-12-25T21:46:12.786Z,4.37
2018-12-25T21:49:16.614Z,5.53
2018-12-25T21:52:39.739Z,5.33
2018-12-25T21:56:23.391Z,5.10
2018-12-25T21:59:27.927Z,4.90
2018-12-25T22:02:31.777Z,4.67
2018-12-25T22:05:35.937Z,5.13
2018-12-25T22:08:39.709Z,2.93
2018-12-25T22:11:45.371Z,4.70
2018-12-25T22:14:49.582Z,4.80
2018-12-25T22:17:54.166Z,4.53
2018-12-25T22:20:59.108Z,4.00
2018-12-25T22:24:02.796Z,4.63
2018-12-25T22:27:06.518Z,6.27
2018-12-25T22:30:11.127Z,4.93
2018-12-25T22:33:14.741Z,4.33
2018-12-25T22:36:18.750Z,3.17
2018-12-25T22:39:22.947Z,5.27
2018-12-25T22:42:27.320Z,6.20
2018-12-25T22:45:31.032Z,2.70
2018-12-25T22:48:35.326Z,129.43
2018-12-25T22:51:39.307Z,70.57
2018-12-25T22:54:43.406Z,63.53
2018-12-25T22:57:47.920Z,58.23
2018-12-25T23:00:51.619Z,53.90
2018-12-25T23:03:55.922Z,43.17
2018-12-25T23:06:59.907Z,42.37
2018-12-25T23:10:03.731Z,35.00
2018-12-25T23:13:07.378Z,34.87
2018-12-25T23:16:30.718Z,40.40
2018-12-25T23:19:34.628Z,34.10
2018-12-25T23:22:38.590Z,34.00
2018-12-25T23:25:44.673Z,31.67
2018-12-25T23:28:48.452Z,32.50
2018-12-25T23:31:53.387Z,27.67
2018-12-25T23:34:57.434Z,25.97
2018-12-25T23:38:01.155Z,26.73
2018-12-25T23:41:24.045Z,30.80
2018-12-25T23:44:28.088Z,25.73
2018-12-25T23:47:32.316Z,24.20
2018-12-25T23:50:55.256Z,22.23
2018-12-25T23:53:58.879Z,17.37
2018-12-25T23:57:02.971Z,19.07
